Cuba, MO (65453)

7:56 PM CST on November 28, 2014 (GMT -0600)
Rosati, Missouri | Change Station
CLOSE
Current Station
Personal Weather Station
Location: St. James, MO
Elevation: 1043 ft
Nearby Weather Stations

Elev 1043 ft 38.03 °N, 91.54 °W | Updated 4 minutes ago

Clear
Clear
48.5 °F
Feels Like 48 °F
N
3.0
Wind Variable Wind from South
Gusts 11.0 mph

Today
High -- | Low -- °F
--% Chance of Precip.
Yesterday
High -- | Low -- °F
Precip. -- in
7:00 AM 4:46 PM
Waxing Crescent, 46% visible
Pressure 29.88 in
Visibility 10.0 miles
Clouds Clear
Windchill 48 °F
Dew Point 35 °F
Humidity 60%
Rainfall 0.00 in
Snow Depth Not available.
UV 0 out of 12
Pollen 1.40 out of 12
Air Quality Not available.
Flu Activity Not available.
METAR KVIH 290153Z AUTO 19016KT 10SM CLR 08/01 A2987 RMK AO2 SLP119 T00830006

More Conditions Fewer Conditions

Pressure 29.88 in
Visibility 10.0 miles
Clouds Clear
Windchill 48 °F
Dew Point 35 °F
Humidity 60%
Rainfall 0.00 in
Snow Depth Not available.
UV 0 out of 12
Pollen 1.40 out of 12
Air Quality Not available.
Flu Activity Not available.
METAR KVIH 290153Z AUTO 19016KT 10SM CLR 08/01 A2987 RMK AO2 SLP119 T00830006

More Conditions Fewer Conditions

10-Day Weather Forecast

Almanac

Astronomy

Nov. 28, 2014 Rise Set
Actual Time
Civil Twilight
Nautical Twilight
Astronomical Twilight
Moon
Length of Visible Light
Length of Day
Tomorrow will be .
, % of the Moon is Illuminated

Today's Extremes

State Highs State Lows

Community

WunderPhotos

Upload Photos

1,774,369 photos uploaded!

WunderBlogs® & News

Nearby

Air Quality

  Air Quality AQ Index Pollutant
Not available.

Snow Depth

Station Depth Elevation

Earthquake Activity

City Distance Mag. Time & Date
Minimum magnitude displayed is 2.5.

Coastal Water Temperatures

Place Temperature

Nearby Weather Stations